Time;durP1;ratioP1;P1;durP2;ratioP2;P2;SDS_P1;SDS_P2;PMS_P1;PMS_P2;Temp;Humidity;BMP_temperature;BMP_pressure;BME280_temperature;BME280_humidity;BME280_pressure;Samples;Min_cycle;Max_cycle;Signal;HPM_P1;HPM_P2
2023/12/21 00:02:21;;;;;;;9.80;6.03;;;;;;;9.69;80.99;100672.72;4977916;28;20114;-85
2023/12/21 00:04:47;;;;;;;7.95;5.38;;;;;;;9.90;81.31;100724.28;4987428;28;20018;-87
2023/12/21 00:07:12;;;;;;;9.43;6.13;;;;;;;9.93;81.52;100729.69;4990298;28;20066;-85
2023/12/21 00:09:39;;;;;;;8.52;5.32;;;;;;;9.84;81.08;100708.28;4975008;28;20749;-84
2023/12/21 00:12:05;;;;;;;8.93;5.78;;;;;;;9.97;81.02;100735.16;4991077;28;20417;-85
2023/12/21 00:14:31;;;;;;;7.45;5.55;;;;;;;9.40;81.41;100647.63;4979482;28;20030;-84
2023/12/21 00:16:57;;;;;;;7.97;5.63;;;;;;;9.87;81.05;100708.47;4991553;28;20045;-84
2023/12/21 00:19:23;;;;;;;8.35;5.82;;;;;;;10.04;80.58;100731.16;4975212;28;20507;-85
2023/12/21 00:21:48;;;;;;;8.27;5.75;;;;;;;9.83;80.47;100686.53;4990020;28;20173;-85
2023/12/21 00:24:14;;;;;;;9.10;6.28;;;;;;;9.77;81.31;100692.28;4985663;28;20402;-84
2023/12/21 00:26:40;;;;;;;8.30;5.55;;;;;;;9.93;80.87;100709.69;4990841;28;20031;-84
2023/12/21 00:29:06;;;;;;;8.32;5.90;;;;;;;10.08;80.71;100716.59;4976293;28;20500;-84
2023/12/21 00:31:32;;;;;;;8.57;6.25;;;;;;;9.55;80.85;100629.34;4978976;28;20022;-85
2023/12/21 00:33:57;;;;;;;9.57;6.03;;;;;;;9.65;80.61;100654.19;4985428;28;20115;-86
2023/12/21 00:36:23;;;;;;;8.30;5.53;;;;;;;9.96;80.43;100707.25;4977792;28;20035;-85
2023/12/21 00:38:49;;;;;;;8.15;5.70;;;;;;;10.05;80.46;100709.47;4989733;28;20121;-85
2023/12/21 00:41:14;;;;;;;9.27;6.10;;;;;;;10.03;80.23;100708.47;4984330;28;20034;-86
2023/12/21 00:43:40;;;;;;;8.13;5.90;;;;;;;9.85;80.91;100681.41;4973233;28;20040;-85
2023/12/21 00:46:06;;;;;;;8.10;5.97;;;;;;;10.14;80.09;100727.38;4989278;28;20042;-85
2023/12/21 00:48:31;;;;;;;8.43;5.85;;;;;;;10.01;80.35;100702.28;4984123;28;20033;-86
2023/12/21 00:50:57;;;;;;;7.63;5.90;;;;;;;9.99;80.33;100702.22;4981147;28;20038;-86
2023/12/21 00:53:24;;;;;;;8.90;6.10;;;;;;;9.96;80.60;100695.94;4971344;28;20030;-86
2023/12/21 00:55:50;;;;;;;7.32;5.38;;;;;;;9.96;80.57;100715.06;4980209;28;20049;-85
2023/12/21 00:58:15;;;;;;;7.40;5.78;;;;;;;10.01;80.56;100694.44;4986040;28;20046;-85
2023/12/21 01:00:41;;;;;;;7.80;5.80;;;;;;;9.75;80.28;100643.47;4960743;28;20041;-86
2023/12/21 01:03:07;;;;;;;8.50;5.72;;;;;;;10.04;80.83;100718.13;4988684;28;20035;-84
2023/12/21 01:05:32;;;;;;;8.02;5.80;;;;;;;9.82;80.86;100687.34;4961129;28;20137;-84
2023/12/21 01:07:58;;;;;;;8.10;5.78;;;;;;;9.96;80.50;100702.03;4987421;28;20077;-85
2023/12/21 01:10:24;;;;;;;9.65;6.40;;;;;;;9.81;80.78;100679.44;4977751;28;20038;-85
2023/12/21 01:12:51;;;;;;;8.40;5.47;;;;;;;9.35;80.94;100608.25;4982928;28;20026;-85
2023/12/21 01:15:17;;;;;;;8.13;5.70;;;;;;;9.64;80.31;100637.66;4980658;28;20045;-86
2023/12/21 01:17:43;;;;;;;7.50;5.50;;;;;;;9.90;80.37;100687.75;4986701;28;20018;-86
2023/12/21 01:20:12;;;;;;;8.13;5.78;;;;;;;9.98;80.75;100705.63;4984030;28;20030;-85
2023/12/21 01:22:37;;;;;;;7.97;5.45;;;;;;;9.83;80.86;100683.91;4985032;28;20046;-85
2023/12/21 01:25:03;;;;;;;8.48;5.72;;;;;;;9.55;80.09;100618.94;4971563;28;20030;-85
2023/12/21 01:27:29;;;;;;;7.20;5.38;;;;;;;10.01;80.26;100699.66;4988588;28;20036;-85
2023/12/21 01:29:54;;;;;;;8.57;5.70;;;;;;;9.95;80.64;100697.66;4968422;28;20065;-86
2023/12/21 01:32:20;;;;;;;8.80;5.68;;;;;;;9.89;80.81;100688.59;4979844;28;20126;-84
2023/12/21 01:34:46;;;;;;;8.23;5.55;;;;;;;9.95;80.78;100697.66;4978196;28;20037;-84
2023/12/21 01:37:12;;;;;;;8.38;5.80;;;;;;;10.03;80.44;100704.97;4984035;28;20094;-84
2023/12/21 01:39:38;;;;;;;8.70;5.45;;;;;;;10.06;80.54;100713.00;4979545;28;20038;-84
2023/12/21 01:42:04;;;;;;;8.57;5.82;;;;;;;10.02;81.39;100704.09;4987596;28;20048;-85
2023/12/21 01:44:29;;;;;;;8.35;5.57;;;;;;;10.12;80.31;100703.78;4976227;28;20110;-82
2023/12/21 01:46:55;;;;;;;8.82;6.15;;;;;;;10.11;80.75;100701.97;4988844;28;20567;-83
2023/12/21 01:49:21;;;;;;;7.45;5.60;;;;;;;9.98;80.32;100681.25;4976204;28;20027;-83
2023/12/21 01:51:47;;;;;;;7.60;5.30;;;;;;;9.93;80.72;100675.78;4980926;28;20040;-83
2023/12/21 01:54:13;;;;;;;6.90;5.47;;;;;;;10.02;80.89;100696.25;4981436;28;20459;-84
2023/12/21 01:56:39;;;;;;;;;;;;;;;10.10;80.60;100702.81;4976954;28;20045;-84
2023/12/21 01:59:05;;;;;;;9.48;6.20;;;;;;;10.04;80.78;100699.84;4981039;28;19922;-86
2023/12/21 02:01:33;;;;;;;8.10;5.32;;;;;;;9.95;81.13;100695.03;4975173;28;20027;-85
2023/12/21 02:03:59;;;;;;;8.13;5.70;;;;;;;9.76;80.85;100653.09;4979555;28;20042;-83
2023/12/21 02:06:25;;;;;;;8.00;5.38;;;;;;;9.64;81.10;100634.19;4988546;28;20514;-83
2023/12/21 02:08:51;;;;;;;6.47;5.03;;;;;;;9.85;81.12;100657.94;4975427;28;20129;-85
2023/12/21 02:11:18;;;;;;;8.55;5.82;;;;;;;9.82;81.10;100661.28;4986546;28;20490;-86
2023/12/21 02:13:43;;;;;;;7.63;5.45;;;;;;;9.74;81.13;100657.34;4978239;28;20043;-84
2023/12/21 02:16:32;;;;;;;7.93;5.32;;;;;;;10.00;80.65;100687.47;4987634;28;20486;-84
2023/12/21 02:18:58;;;;;;;7.80;5.40;;;;;;;9.95;80.28;100661.13;4986513;28;20038;-84
2023/12/21 02:21:24;;;;;;;8.95;5.18;;;;;;;9.94;80.90;100674.97;4969957;28;20379;-84
2023/12/21 02:23:51;;;;;;;7.50;5.22;;;;;;;9.81;80.79;100648.16;4975153;28;20505;-84
2023/12/21 02:26:18;;;;;;;7.50;5.40;;;;;;;9.89;81.17;100652.06;4993742;28;20035;-85
2023/12/21 02:28:44;;;;;;;9.00;5.63;;;;;;;9.82;80.73;100634.28;4997235;28;20046;-85
2023/12/21 02:31:09;;;;;;;6.22;4.88;;;;;;;9.65;80.79;100612.50;4991533;28;20637;-84
2023/12/21 02:33:35;;;;;;;7.75;5.50;;;;;;;10.06;80.57;100674.75;4993353;28;20037;-84
2023/12/21 02:36:03;;;;;;;7.30;5.38;;;;;;;9.71;80.76;100624.16;4981286;28;20446;-85
2023/12/21 02:38:28;;;;;;;7.20;5.13;;;;;;;9.94;80.96;100658.44;4987298;28;20030;-85
2023/12/21 02:40:54;;;;;;;7.65;5.22;;;;;;;9.71;80.80;100615.44;4989321;28;20034;-85
2023/12/21 02:43:20;;;;;;;7.10;5.22;;;;;;;10.03;80.59;100655.41;4987458;28;20165;-85
2023/12/21 02:45:45;;;;;;;7.05;4.82;;;;;;;9.62;80.54;100581.06;4992345;28;20092;-86
2023/12/21 02:48:12;;;;;;;7.28;5.18;;;;;;;10.08;80.26;100657.47;4978150;28;20034;-85
2023/12/21 02:50:38;;;;;;;6.45;5.03;;;;;;;9.60;80.36;100570.53;4972883;28;20489;-85
2023/12/21 02:53:04;;;;;;;6.13;4.85;;;;;;;9.92;80.84;100629.63;4991431;28;20019;-85
2023/12/21 02:55:30;;;;;;;6.80;4.95;;;;;;;9.93;80.65;100625.34;4982084;28;20112;-85
2023/12/21 02:57:56;;;;;;;8.85;4.80;;;;;;;9.85;80.58;100597.94;4990796;28;20022;-87
2023/12/21 03:00:22;;;;;;;6.80;4.90;;;;;;;10.01;80.68;100634.44;4983678;28;20038;-86
2023/12/21 03:02:47;;;;;;;7.38;5.22;;;;;;;9.96;80.86;100629.00;4983765;28;20022;-86
2023/12/21 03:05:13;;;;;;;6.82;4.88;;;;;;;9.47;81.27;100549.84;4973358;28;20033;-86
2023/12/21 03:07:39;;;;;;;7.80;5.15;;;;;;;9.93;80.97;100625.34;4973617;28;20035;-84
2023/12/21 03:10:05;;;;;;;6.97;5.18;;;;;;;9.85;80.89;100606.66;4975818;28;20094;-86
2023/12/21 03:12:31;;;;;;;6.90;4.90;;;;;;;9.73;80.64;100582.53;4983916;28;20417;-86
2023/12/21 03:14:56;;;;;;;6.32;4.60;;;;;;;9.98;80.65;100619.53;4979573;28;20023;-85
2023/12/21 03:17:22;;;;;;;6.65;4.72;;;;;;;9.82;80.68;100592.56;4982519;28;20043;-85
2023/12/21 03:19:47;;;;;;;7.45;5.13;;;;;;;9.75;81.04;100592.22;4978666;28;20133;-85
2023/12/21 03:22:13;;;;;;;6.32;4.88;;;;;;;9.73;80.96;100587.75;4991264;28;20074;-86
2023/12/21 03:24:40;;;;;;;7.53;5.05;;;;;;;9.98;80.87;100618.66;4990986;28;20063;-85
2023/12/21 03:27:05;;;;;;;6.43;4.95;;;;;;;9.99;80.58;100616.13;4985701;28;20109;-86
2023/12/21 03:29:31;;;;;;;6.30;4.70;;;;;;;9.69;81.11;100571.03;4986738;28;20122;-86
2023/12/21 03:31:57;;;;;;;6.88;4.60;;;;;;;9.98;80.78;100622.16;4991073;28;20051;-86
2023/12/21 03:34:23;;;;;;;8.80;5.20;;;;;;;9.76;80.04;100569.66;4991607;28;20030;-86
2023/12/21 03:36:49;;;;;;;6.53;5.05;;;;;;;9.99;80.54;100618.75;4982098;28;20548;-85
2023/12/21 03:39:15;;;;;;;7.25;4.95;;;;;;;9.85;80.84;100601.44;4984344;28;20053;-86
2023/12/21 03:41:40;;;;;;;7.30;4.63;;;;;;;9.87;80.65;100606.75;5001876;28;20502;-87
2023/12/21 03:44:06;;;;;;;7.03;5.10;;;;;;;9.85;80.63;100595.34;4963576;28;20516;-87
2023/12/21 03:46:32;;;;;;;6.93;4.70;;;;;;;9.51;80.95;100544.88;4983024;28;20121;-86
2023/12/21 03:48:57;;;;;;;5.45;4.53;;;;;;;9.82;80.68;100597.78;4975559;28;20039;-86
2023/12/21 03:51:24;;;;;;;6.22;4.60;;;;;;;9.98;80.19;100603.00;4976645;28;20022;-83
2023/12/21 03:53:50;;;;;;;6.47;4.88;;;;;;;9.74;80.90;100580.00;4982186;28;20030;-86
2023/12/21 03:56:15;;;;;;;6.40;4.88;;;;;;;9.79;80.75;100575.03;4989443;28;20394;-85
2023/12/21 03:58:41;;;;;;;6.22;4.75;;;;;;;10.18;80.18;100633.66;4980720;28;20088;-85
2023/12/21 04:01:07;;;;;;;7.60;5.57;;;;;;;10.02;80.58;100623.22;4990435;28;20022;-86
2023/12/21 04:03:33;;;;;;;6.50;4.60;;;;;;;9.80;80.67;100600.31;4989413;28;20065;-84
2023/12/21 04:05:59;;;;;;;7.05;4.50;;;;;;;9.82;80.62;100608.19;4955549;28;20090;-84
2023/12/21 04:08:24;;;;;;;6.63;4.70;;;;;;;9.98;80.42;100631.69;4981170;28;20043;-86
2023/12/21 04:10:50;;;;;;;6.10;4.70;;;;;;;9.93;80.76;100626.25;4974648;28;20042;-83
2023/12/21 04:13:16;;;;;;;7.68;5.00;;;;;;;10.04;80.02;100639.84;4984310;28;20402;-86
2023/12/21 04:15:41;;;;;;;6.68;4.93;;;;;;;9.63;80.36;100568.13;4982304;28;20113;-87
2023/12/21 04:18:07;;;;;;;7.03;5.03;;;;;;;9.95;80.15;100622.00;4972774;28;20077;-85
2023/12/21 04:20:33;;;;;;;7.10;5.15;;;;;;;10.10;80.39;100639.31;4989463;28;20038;-87
2023/12/21 04:22:58;;;;;;;7.50;5.38;;;;;;;10.08;79.97;100654.84;4984125;28;20028;-84
2023/12/21 04:25:24;;;;;;;6.88;5.13;;;;;;;10.01;80.78;100642.28;4987383;28;20497;-86
2023/12/21 04:27:50;;;;;;;7.10;5.50;;;;;;;9.95;80.38;100635.03;4973422;28;20030;-84
2023/12/21 04:30:15;;;;;;;6.82;4.97;;;;;;;9.73;80.64;100619.03;4982610;28;20100;-84
2023/12/21 04:32:42;;;;;;;7.07;5.07;;;;;;;9.43;80.66;100568.72;4981751;28;20031;-87
2023/12/21 04:35:10;;;;;;;7.45;5.00;;;;;;;9.81;79.97;100614.25;4975170;28;20054;-86
2023/12/21 04:37:35;;;;;;;5.57;4.47;;;;;;;10.03;79.95;100655.41;4983637;28;20566;-87
2023/12/21 04:40:02;;;;;;;8.13;5.13;;;;;;;9.90;80.06;100643.41;4974032;28;20034;-86
2023/12/21 04:42:29;;;;;;;7.15;4.88;;;;;;;9.86;80.31;100633.63;4991322;28;20058;-83
2023/12/21 04:44:54;;;;;;;7.00;5.03;;;;;;;9.88;80.59;100651.16;4989220;28;20489;-86
2023/12/21 04:47:20;;;;;;;6.95;5.18;;;;;;;9.87;80.76;100659.81;4988948;28;20091;-85
2023/12/21 04:49:46;;;;;;;7.28;4.97;;;;;;;9.90;80.10;100649.53;4989814;28;20106;-85
2023/12/21 04:52:12;;;;;;;7.07;5.43;;;;;;;10.13;79.93;100686.41;4978645;28;20114;-84
2023/12/21 04:54:38;;;;;;;;;;;;;;;10.19;79.91;100694.56;4975787;28;20514;-84
2023/12/21 04:57:04;;;;;;;7.35;5.18;;;;;;;10.15;79.92;100696.13;4982364;28;20590;-84
2023/12/21 04:59:30;;;;;;;6.93;5.10;;;;;;;10.08;80.11;100693.09;4991364;28;20161;-85
2023/12/21 05:01:56;;;;;;;7.45;5.47;;;;;;;9.81;80.53;100658.56;4973633;28;20034;-85
2023/12/21 05:04:23;;;;;;;7.57;5.25;;;;;;;9.80;80.61;100655.06;4999418;28;20109;-85
2023/12/21 05:06:48;;;;;;;7.95;6.03;;;;;;;9.78;80.38;100641.06;4988431;28;20026;-85
2023/12/21 05:09:14;;;;;;;8.25;5.72;;;;;;;9.96;80.93;100689.00;4990360;28;20045;-85
2023/12/21 05:11:39;;;;;;;9.65;5.97;;;;;;;9.74;79.97;100634.75;4977470;28;20043;-85
2023/12/21 05:14:05;;;;;;;8.27;5.72;;;;;;;9.88;80.29;100655.47;4975413;28;20049;-83
2023/12/21 05:16:31;;;;;;;7.60;5.53;;;;;;;10.12;80.37;100701.19;4987686;28;20034;-84
2023/12/21 05:18:56;;;;;;;7.30;5.15;;;;;;;9.76;80.17;100634.84;4988541;28;20042;-84
2023/12/21 05:21:22;;;;;;;8.93;5.70;;;;;;;9.83;80.36;100662.16;4979519;28;20041;-85
2023/12/21 05:23:48;;;;;;;8.75;5.45;;;;;;;9.99;80.55;100685.69;4985306;28;20042;-84
2023/12/21 05:26:15;;;;;;;8.73;5.95;;;;;;;9.72;80.34;100640.72;4971434;28;20034;-84
2023/12/21 05:28:42;;;;;;;8.63;6.10;;;;;;;10.15;80.16;100714.38;4975525;28;20500;-85
2023/12/21 05:31:11;;;;;;;10.25;6.65;;;;;;;10.11;80.17;100722.84;4988203;28;20168;-84
2023/12/21 05:33:37;;;;;;;10.10;6.60;;;;;;;9.98;80.25;100712.56;4983585;28;20035;-84
2023/12/21 05:36:03;;;;;;;9.55;6.60;;;;;;;10.12;80.08;100740.31;4975247;28;20030;-85
2023/12/21 05:38:29;;;;;;;9.18;6.43;;;;;;;9.93;80.01;100712.31;4970340;28;20042;-84
2023/12/21 05:40:55;;;;;;;8.63;6.10;;;;;;;10.07;80.42;100741.75;4986733;28;20415;-85
2023/12/21 05:43:21;;;;;;;7.55;5.72;;;;;;;9.88;80.41;100702.44;4968305;28;20042;-85
2023/12/21 05:45:47;;;;;;;7.97;5.80;;;;;;;9.97;80.14;100724.72;4977635;28;20054;-87
2023/12/21 05:48:13;;;;;;;8.65;5.70;;;;;;;9.77;80.09;100684.47;4966661;28;20552;-87
2023/12/21 05:50:38;;;;;;;8.95;6.22;;;;;;;9.51;80.25;100636.09;4969147;28;20510;-88
2023/12/21 05:53:04;;;;;;;9.00;6.20;;;;;;;9.70;80.38;100682.34;4967623;28;20038;-85
2023/12/21 05:55:31;;;;;;;9.93;6.32;;;;;;;10.04;80.49;100739.00;4968452;28;20121;-85
2023/12/21 05:57:57;;;;;;;8.88;6.40;;;;;;;9.85;80.63;100700.56;4980127;28;20422;-87
2023/12/21 06:00:22;;;;;;;9.98;6.57;;;;;;;10.07;80.34;100741.75;4978580;28;20023;-87
2023/12/21 06:02:48;;;;;;;8.95;6.00;;;;;;;9.92;80.73;100730.47;4981822;28;20204;-86
2023/12/21 06:05:14;;;;;;;8.82;6.00;;;;;;;10.07;80.18;100751.31;4978564;28;20061;-87
2023/12/21 06:07:41;;;;;;;9.93;6.40;;;;;;;9.71;80.44;100691.06;4978321;28;20038;-87
2023/12/21 06:10:08;;;;;;;8.18;5.85;;;;;;;9.75;80.02;100693.91;4979164;28;20042;-86
2023/12/21 06:12:34;;;;;;;8.52;6.10;;;;;;;9.87;80.66;100739.78;4976647;28;20026;-86
2023/12/21 06:15:01;;;;;;;8.63;5.90;;;;;;;9.93;80.56;100750.56;4981686;28;20041;-86
2023/12/21 06:17:27;;;;;;;9.82;6.57;;;;;;;9.68;80.75;100711.75;4970727;28;20038;-86
2023/12/21 06:19:53;;;;;;;8.80;6.32;;;;;;;9.64;80.71;100694.13;4966883;28;20391;-86
2023/12/21 06:22:19;;;;;;;9.32;6.00;;;;;;;9.46;80.42;100671.44;4973022;28;20047;-85
2023/12/21 06:24:45;;;;;;;10.18;6.40;;;;;;;9.59;81.11;100712.13;4978246;28;20039;-85
2023/12/21 06:27:36;;;;;;;7.40;5.53;;;;;;;9.32;80.61;100660.22;4971401;28;20877;-85
2023/12/21 06:30:03;;;;;;;9.50;5.88;;;;;;;10.02;80.38;100773.66;4974390;28;20042;-86
2023/12/21 06:32:29;;;;;;;8.40;5.85;;;;;;;9.98;80.66;100767.34;4974876;28;20069;-84
2023/12/21 06:34:54;;;;;;;9.35;6.10;;;;;;;9.95;80.59;100764.56;4981632;28;20061;-86
2023/12/21 06:37:20;;;;;;;7.38;5.55;;;;;;;9.68;80.59;100711.75;4984392;28;20053;-84
2023/12/21 06:39:46;;;;;;;8.73;6.05;;;;;;;9.72;80.56;100729.38;4981727;28;20037;-84
2023/12/21 06:42:12;;;;;;;8.45;6.05;;;;;;;10.03;80.53;100784.13;4982026;28;20034;-86
2023/12/21 06:44:39;;;;;;;7.97;5.50;;;;;;;9.65;80.55;100720.31;4975915;28;20041;-86
2023/12/21 06:47:08;;;;;;;8.82;5.97;;;;;;;9.89;80.61;100765.13;4974665;28;20150;-85
2023/12/21 06:49:34;;;;;;;7.15;5.38;;;;;;;9.53;80.27;100719.59;4967703;28;20030;-85
2023/12/21 06:52:00;;;;;;;8.93;6.15;;;;;;;9.47;80.74;100703.59;4970107;28;20092;-84
2023/12/21 06:54:25;;;;;;;8.65;6.13;;;;;;;9.76;81.01;100747.88;4975013;28;20541;-85
2023/12/21 06:56:51;;;;;;;7.93;5.82;;;;;;;9.77;80.54;100740.94;4985310;28;20534;-85
2023/12/21 06:59:16;;;;;;;8.57;5.82;;;;;;;9.82;80.74;100752.56;4980093;28;20031;-84
2023/12/21 07:01:42;;;;;;;7.47;5.60;;;;;;;10.08;80.28;100787.91;4979348;28;20113;-84
2023/12/21 07:04:08;;;;;;;8.15;5.57;;;;;;;10.06;80.50;100794.75;4976006;28;20114;-84
2023/12/21 07:06:37;;;;;;;8.75;6.13;;;;;;;9.85;80.80;100750.09;4980190;28;20030;-83
2023/12/21 07:09:03;;;;;;;7.72;5.75;;;;;;;9.98;80.58;100789.09;4975657;28;20035;-84
2023/12/21 07:11:28;;;;;;;7.97;5.70;;;;;;;10.03;80.72;100801.50;4981685;28;20493;-84
2023/12/21 07:13:54;;;;;;;8.30;5.65;;;;;;;10.03;80.72;100805.00;4976110;28;20042;-85
2023/12/21 07:16:20;;;;;;;7.30;5.32;;;;;;;9.92;80.36;100782.66;4982991;28;20129;-85
2023/12/21 07:18:45;;;;;;;10.05;6.63;;;;;;;9.56;81.11;100746.72;4978020;28;20053;-84
2023/12/21 07:21:13;;;;;;;10.15;6.28;;;;;;;10.03;80.65;100804.13;4987457;28;20100;-85
2023/12/21 07:23:39;;;;;;;8.75;5.85;;;;;;;9.74;80.57;100759.94;4968411;28;20081;-85
2023/12/21 07:26:04;;;;;;;10.13;6.18;;;;;;;9.84;80.97;100773.47;4965122;28;20130;-85
2023/12/21 07:28:31;;;;;;;10.43;6.07;;;;;;;9.58;81.12;100720.75;4981832;28;20528;-84
2023/12/21 07:30:57;;;;;;;8.55;5.70;;;;;;;9.49;80.78;100702.00;4985633;28;20046;-84
2023/12/21 07:33:22;;;;;;;8.40;5.85;;;;;;;9.99;80.38;100792.63;4974932;28;20039;-84
2023/12/21 07:35:48;;;;;;;7.28;5.45;;;;;;;10.02;80.26;100773.66;4986528;28;20069;-84
2023/12/21 07:38:14;;;;;;;8.02;5.03;;;;;;;9.66;80.23;100711.66;4969380;28;20046;-84
2023/12/21 07:40:40;;;;;;;8.57;5.75;;;;;;;9.97;80.48;100761.22;4988430;28;20039;-84
2023/12/21 07:43:05;;;;;;;8.88;6.00;;;;;;;9.75;80.23;100721.72;4979663;28;20157;-84
2023/12/21 07:45:31;;;;;;;9.13;5.90;;;;;;;10.03;81.00;100771.09;4972918;28;20048;-84
2023/12/21 07:47:56;;;;;;;8.00;5.63;;;;;;;9.79;81.26;100732.38;4995818;28;20039;-84
2023/12/21 07:50:22;;;;;;;9.80;6.35;;;;;;;9.97;81.36;100761.22;4974546;28;20027;-84
2023/12/21 07:52:48;;;;;;;10.43;6.03;;;;;;;9.63;81.53;100697.53;4984085;28;20031;-84
2023/12/21 07:55:14;;;;;;;9.90;5.88;;;;;;;10.26;81.66;100806.31;4978585;28;20031;-84
2023/12/21 07:57:40;;;;;;;10.38;6.20;;;;;;;9.60;82.46;100681.75;4979755;28;20439;-84
2023/12/21 08:00:06;;;;;;;10.13;6.40;;;;;;;9.75;83.17;100727.81;4986970;28;20038;-83
2023/12/21 08:02:31;;;;;;;;;;;;;;;10.32;81.63;100808.41;4982626;28;20053;-84
2023/12/21 08:04:58;;;;;;;10.68;5.68;;;;;;;9.83;82.79;100722.16;4975264;28;20008;-84
2023/12/21 08:07:24;;;;;;;11.45;6.20;;;;;;;10.31;84.03;100806.63;4982028;28;20037;-84
2023/12/21 08:09:49;;;;;;;13.65;6.45;;;;;;;10.31;84.66;100801.41;4971156;28;20035;-83
2023/12/21 08:12:15;;;;;;;11.75;5.95;;;;;;;10.13;84.83;100780.34;4978647;28;20092;-83
2023/12/21 08:14:41;;;;;;;15.98;6.50;;;;;;;10.23;86.16;100792.22;4986408;28;20018;-84
2023/12/21 08:17:09;;;;;;;13.45;6.88;;;;;;;9.95;85.58;100730.66;4981456;28;20103;-84
2023/12/21 08:19:37;;;;;;;11.82;6.32;;;;;;;10.35;86.46;100808.56;4977635;28;20078;-85
2023/12/21 08:22:04;;;;;;;14.60;6.72;;;;;;;9.95;86.03;100717.63;4974692;28;20646;-84
2023/12/21 08:24:30;;;;;;;12.25;6.15;;;;;;;10.36;86.05;100792.09;4979501;28;20033;-85
2023/12/21 08:26:56;;;;;;;11.95;6.35;;;;;;;10.04;86.39;100727.66;4986899;28;20026;-84
2023/12/21 08:29:22;;;;;;;12.85;6.50;;;;;;;10.26;87.07;100767.16;4966984;28;20460;-84
2023/12/21 08:31:47;;;;;;;12.30;6.05;;;;;;;10.04;87.12;100730.28;4985423;28;20049;-84
2023/12/21 08:34:13;;;;;;;13.32;6.35;;;;;;;10.25;87.11;100765.38;4979583;28;20536;-85
2023/12/21 08:36:39;;;;;;;10.77;6.07;;;;;;;10.07;87.28;100733.94;4980929;28;20109;-85
2023/12/21 08:39:05;;;;;;;12.65;6.55;;;;;;;10.16;87.47;100746.63;4985059;28;20169;-85
2023/12/21 08:41:30;;;;;;;12.60;6.18;;;;;;;10.15;87.56;100734.38;4980235;28;20031;-84
2023/12/21 08:43:56;;;;;;;9.77;6.43;;;;;;;10.42;87.89;100783.72;4976708;28;20038;-83
2023/12/21 08:46:22;;;;;;;11.90;6.10;;;;;;;9.95;87.30;100700.25;4984113;28;20057;-84
2023/12/21 08:48:48;;;;;;;12.75;6.70;;;;;;;10.43;87.54;100777.66;4974473;28;20030;-84
2023/12/21 08:51:14;;;;;;;11.43;6.20;;;;;;;10.52;88.34;100801.66;4980401;28;20023;-84
2023/12/21 08:53:40;;;;;;;11.43;6.00;;;;;;;10.53;87.92;100790.41;4974105;28;20043;-83
2023/12/21 08:56:06;;;;;;;11.05;5.80;;;;;;;10.26;87.54;100742.78;4978192;28;20026;-84
2023/12/21 08:58:32;;;;;;;9.68;5.38;;;;;;;10.21;87.57;100729.47;4979537;28;20195;-83
2023/12/21 09:00:58;;;;;;;12.27;5.70;;;;;;;10.53;87.49;100770.41;4969940;28;20520;-84
2023/12/21 09:03:24;;;;;;;11.82;6.32;;;;;;;10.50;87.73;100753.72;4975641;28;20489;-84
2023/12/21 09:05:50;;;;;;;11.27;5.80;;;;;;;10.63;87.57;100768.31;4974229;28;20073;-84
2023/12/21 09:08:16;;;;;;;11.55;5.60;;;;;;;10.27;87.36;100706.34;4975986;28;20039;-83
2023/12/21 09:10:42;;;;;;;10.55;5.47;;;;;;;10.63;87.61;100755.25;4983538;28;20034;-84
2023/12/21 09:13:08;;;;;;;10.63;5.40;;;;;;;10.54;87.62;100722.63;4980395;28;20030;-83
2023/12/21 09:15:36;;;;;;;11.05;5.38;;;;;;;10.54;87.85;100719.09;4975713;28;20557;-83
2023/12/21 09:18:03;;;;;;;11.80;6.30;;;;;;;10.58;87.75;100732.41;4985554;28;20046;-83
2023/12/21 09:20:29;;;;;;;9.57;5.75;;;;;;;10.61;87.43;100738.63;4970453;28;20030;-83
2023/12/21 09:23:03;;;;;;;12.25;6.18;;;;;;;10.53;87.26;100725.13;4978258;28;20036;-83
2023/12/21 09:25:29;;;;;;;11.43;5.35;;;;;;;10.20;87.08;100662.44;4983987;28;20461;-84
2023/12/21 09:27:57;;;;;;;10.25;5.70;;;;;;;10.58;86.84;100715.81;4982126;28;20030;-83
2023/12/21 09:30:25;;;;;;;10.20;5.30;;;;;;;10.50;87.45;100697.16;4981360;28;20070;-83
2023/12/21 09:32:51;;;;;;;11.57;5.70;;;;;;;10.65;87.52;100707.50;4978056;28;20569;-82
2023/12/21 09:35:18;;;;;;;10.15;6.05;;;;;;;10.55;87.82;100679.13;4973734;28;20044;-83
2023/12/21 09:37:45;;;;;;;10.65;5.63;;;;;;;10.24;87.71;100626.97;4984168;28;20038;-83
2023/12/21 09:40:12;;;;;;;9.88;5.45;;;;;;;10.51;87.94;100682.38;4978708;28;20116;-83
2023/12/21 09:42:43;;;;;;;11.63;5.80;;;;;;;10.66;88.23;100706.69;4979662;28;20031;-83
2023/12/21 09:45:10;;;;;;;9.60;6.00;;;;;;;10.44;87.79;100657.69;4982120;28;21693;-83
2023/12/21 09:47:39;;;;;;;9.27;5.80;;;;;;;10.81;88.50;100709.19;4973895;28;20379;-83
2023/12/21 09:50:07;;;;;;;18.55;6.60;;;;;;;10.74;88.91;100687.09;4990532;28;20056;-84
2023/12/21 09:52:34;;;;;;;9.88;5.65;;;;;;;10.59;88.77;100661.06;4984106;28;20114;-84
2023/12/21 09:55:00;;;;;;;11.68;5.93;;;;;;;10.71;89.26;100667.75;4967356;28;20031;-83
2023/12/21 09:57:26;;;;;;;;;;;;;;;10.87;89.16;100683.38;4972474;28;20521;-83
2023/12/21 09:59:55;;;;;;;11.10;6.07;;;;;;;10.82;89.94;100677.06;4982103;28;20442;-83
2023/12/21 10:02:26;;;;;;;14.38;6.38;;;;;;;10.52;90.09;100618.88;4989925;28;20049;-82
2023/12/21 10:04:52;;;;;;;16.60;6.85;;;;;;;10.74;89.97;100650.53;4972928;28;20109;-85
2023/12/21 10:07:18;;;;;;;20.17;7.35;;;;;;;10.63;91.05;100615.13;4980598;28;20173;-83
2023/12/21 10:09:44;;;;;;;16.13;6.75;;;;;;;10.72;90.13;100620.81;4984238;28;20038;-83
2023/12/21 10:12:10;;;;;;;19.08;7.15;;;;;;;10.62;91.27;100595.06;4981640;28;20030;-85
2023/12/21 10:14:36;;;;;;;16.00;7.43;;;;;;;10.75;90.69;100600.09;4979770;28;20086;-85
2023/12/21 10:17:02;;;;;;;15.95;7.53;;;;;;;10.96;91.06;100643.78;4979800;28;20038;-85
2023/12/21 10:19:27;;;;;;;15.32;7.22;;;;;;;10.75;91.16;100602.72;4997204;28;20026;-84
2023/12/21 10:21:53;;;;;;;16.38;7.93;;;;;;;10.76;91.44;100607.09;4979050;28;20117;-83
2023/12/21 10:24:19;;;;;;;18.65;7.25;;;;;;;11.02;91.49;100644.09;4972243;28;20025;-83
2023/12/21 10:26:46;;;;;;;17.02;7.25;;;;;;;10.92;91.56;100620.91;4964831;28;20039;-84
2023/12/21 10:29:16;;;;;;;14.73;7.40;;;;;;;10.78;91.07;100584.56;4982273;28;20683;-83
2023/12/21 10:31:46;;;;;;;15.45;7.13;;;;;;;10.53;91.08;100531.94;4982699;28;20418;-84
2023/12/21 10:34:12;;;;;;;15.25;7.35;;;;;;;10.68;91.13;100550.97;4960172;28;20031;-85
2023/12/21 10:36:44;;;;;;;13.65;7.38;;;;;;;10.93;91.34;100594.88;4976986;28;20027;-85
2023/12/21 10:39:11;;;;;;;22.20;7.75;;;;;;;11.10;91.33;100606.16;4980915;28;20026;-84
2023/12/21 10:41:41;;;;;;;18.50;7.47;;;;;;;11.11;91.27;100607.97;4972673;28;20031;-85
2023/12/21 10:44:07;;;;;;;13.30;7.07;;;;;;;11.03;91.08;100591.03;4987863;28;20132;-85
2023/12/21 10:46:34;;;;;;;16.95;7.85;;;;;;;10.81;90.46;100539.41;4988203;28;20498;-83
2023/12/21 10:49:01;;;;;;;13.07;7.00;;;;;;;10.68;91.43;100511.81;4987776;28;20046;-85
2023/12/21 10:51:36;;;;;;;12.93;7.05;;;;;;;10.80;91.53;100532.41;4964482;28;20034;-83
2023/12/21 10:54:02;;;;;;;11.68;6.63;;;;;;;11.13;91.11;100595.88;4983198;28;20031;-84
2023/12/21 10:56:28;;;;;;;16.60;7.75;;;;;;;11.05;90.44;100570.16;4972137;28;20417;-84
2023/12/21 10:58:55;;;;;;;14.75;7.38;;;;;;;10.87;90.75;100546.66;4984055;28;20042;-84
2023/12/21 11:01:22;;;;;;;18.50;7.30;;;;;;;11.08;90.98;100575.56;4984059;28;20461;-84
2023/12/21 11:03:48;;;;;;;17.67;7.78;;;;;;;10.93;90.53;100536.53;4980579;28;20062;-85
2023/12/21 11:06:18;;;;;;;15.35;6.25;;;;;;;11.06;91.14;100556.31;4989365;28;20109;-83
2023/12/21 11:08:44;;;;;;;17.10;6.97;;;;;;;11.05;90.39;100547.56;4988133;28;20034;-83
2023/12/21 11:11:13;;;;;;;12.10;6.75;;;;;;;11.16;91.06;100559.44;4980642;28;20035;-85
2023/12/21 11:13:44;;;;;;;14.23;6.40;;;;;;;11.06;90.41;100531.06;4980364;28;20611;-86
2023/12/21 11:16:12;;;;;;;15.45;6.55;;;;;;;10.99;90.43;100508.97;4984882;28;20037;-84
2023/12/21 11:18:38;;;;;;;12.20;6.30;;;;;;;11.18;90.52;100531.66;4973318;28;20066;-85
2023/12/21 11:21:04;;;;;;;15.57;7.13;;;;;;;10.90;90.73;100487.63;4972286;28;20027;-84
2023/12/21 11:23:32;;;;;;;9.95;6.28;;;;;;;10.98;90.09;100488.91;4970979;28;20038;-86
2023/12/21 11:25:58;;;;;;;13.75;6.60;;;;;;;11.31;90.17;100548.81;4972718;28;20138;-84